sensor_id;sensor_type;location;lat;lon;timestamp;pressure;altitude;pressure_sealevel;temperature;humidity
35694;BME280;21812;55.536;37.664;2023-03-25T00:01:05;98634.78;;;14.41;46.00
35694;BME280;21812;55.536;37.664;2023-03-25T00:03:35;98625.94;;;14.58;45.49
35694;BME280;21812;55.536;37.664;2023-03-25T00:06:09;98620.50;;;14.70;45.40
35694;BME280;21812;55.536;37.664;2023-03-25T00:08:36;98606.25;;;14.69;44.43
35694;BME280;21812;55.536;37.664;2023-03-25T00:11:02;98611.47;;;14.59;44.97
35694;BME280;21812;55.536;37.664;2023-03-25T00:13:29;98611.88;;;14.39;43.95
35694;BME280;21812;55.536;37.664;2023-03-25T00:15:56;98603.44;;;14.30;45.04
35694;BME280;21812;55.536;37.664;2023-03-25T00:18:24;98559.59;;;13.67;46.72
35694;BME280;21812;55.536;37.664;2023-03-25T00:20:52;98576.16;;;13.93;46.35
35694;BME280;21812;55.536;37.664;2023-03-25T00:23:19;98596.31;;;13.95;46.66
35694;BME280;21812;55.536;37.664;2023-03-25T00:25:45;98600.19;;;14.28;46.35
35694;BME280;21812;55.536;37.664;2023-03-25T00:28:12;98597.56;;;14.33;44.58
35694;BME280;21812;55.536;37.664;2023-03-25T00:30:39;98603.06;;;14.10;45.90
35694;BME280;21812;55.536;37.664;2023-03-25T00:33:05;98605.84;;;13.74;46.62
35694;BME280;21812;55.536;37.664;2023-03-25T00:35:31;98592.47;;;13.62;46.56
35694;BME280;21812;55.536;37.664;2023-03-25T00:37:57;98590.59;;;13.75;45.78
35694;BME280;21812;55.536;37.664;2023-03-25T00:40:29;98577.31;;;13.97;45.38
35694;BME280;21812;55.536;37.664;2023-03-25T00:42:55;98572.91;;;14.36;45.70
35694;BME280;21812;55.536;37.664;2023-03-25T00:45:21;98554.81;;;14.60;44.90
35694;BME280;21812;55.536;37.664;2023-03-25T00:47:47;98557.41;;;14.72;44.39
35694;BME280;21812;55.536;37.664;2023-03-25T00:50:13;98545.53;;;14.68;44.31
35694;BME280;21812;55.536;37.664;2023-03-25T00:52:39;98554.50;;;14.57;42.83
35694;BME280;21812;55.536;37.664;2023-03-25T00:55:06;98550.94;;;13.77;42.73
35694;BME280;21812;55.536;37.664;2023-03-25T00:57:32;98560.34;;;13.15;42.98
35694;BME280;21812;55.536;37.664;2023-03-25T00:59:58;98558.97;;;13.13;46.85
35694;BME280;21812;55.536;37.664;2023-03-25T01:02:23;98566.09;;;12.95;46.69
35694;BME280;21812;55.536;37.664;2023-03-25T01:04:49;98567.78;;;12.42;46.03
35694;BME280;21812;55.536;37.664;2023-03-25T01:07:16;98547.44;;;12.88;48.91
35694;BME280;21812;55.536;37.664;2023-03-25T01:09:42;98554.16;;;13.26;47.79
35694;BME280;21812;55.536;37.664;2023-03-25T01:12:11;98549.53;;;12.75;43.90
35694;BME280;21812;55.536;37.664;2023-03-25T01:14:36;98554.31;;;12.61;48.49
35694;BME280;21812;55.536;37.664;2023-03-25T01:17:02;98538.97;;;12.68;48.65
35694;BME280;21812;55.536;37.664;2023-03-25T01:19:28;98546.63;;;12.76;48.15
35694;BME280;21812;55.536;37.664;2023-03-25T01:21:54;98541.63;;;13.03;47.36
35694;BME280;21812;55.536;37.664;2023-03-25T01:24:20;98511.41;;;13.32;48.01
35694;BME280;21812;55.536;37.664;2023-03-25T01:26:45;98519.81;;;13.64;46.56
35694;BME280;21812;55.536;37.664;2023-03-25T01:29:13;98521.56;;;13.06;45.56
35694;BME280;21812;55.536;37.664;2023-03-25T01:31:39;98521.81;;;12.93;45.92
35694;BME280;21812;55.536;37.664;2023-03-25T01:34:05;98526.34;;;12.33;45.50
35694;BME280;21812;55.536;37.664;2023-03-25T01:36:32;98521.94;;;12.50;48.01
35694;BME280;21812;55.536;37.664;2023-03-25T01:38:58;98516.47;;;12.81;49.50
35694;BME280;21812;55.536;37.664;2023-03-25T01:41:28;98506.53;;;13.17;48.42
35694;BME280;21812;55.536;37.664;2023-03-25T01:46:30;98511.94;;;12.46;47.76
35694;BME280;21812;55.536;37.664;2023-03-25T01:48:56;98511.00;;;12.40;49.14
35694;BME280;21812;55.536;37.664;2023-03-25T01:51:28;98510.09;;;12.70;50.41
35694;BME280;21812;55.536;37.664;2023-03-25T01:53:54;98490.66;;;13.15;49.86
35694;BME280;21812;55.536;37.664;2023-03-25T01:56:24;98448.22;;;13.36;49.01
35694;BME280;21812;55.536;37.664;2023-03-25T01:58:51;98484.78;;;13.71;48.01
35694;BME280;21812;55.536;37.664;2023-03-25T02:01:18;98485.66;;;13.88;47.74
35694;BME280;21812;55.536;37.664;2023-03-25T02:03:47;98475.00;;;13.93;47.02
35694;BME280;21812;55.536;37.664;2023-03-25T02:06:21;98445.66;;;14.03;47.53
35694;BME280;21812;55.536;37.664;2023-03-25T02:08:52;98434.91;;;13.86;45.98
35694;BME280;21812;55.536;37.664;2023-03-25T02:11:19;98471.03;;;13.96;45.93
35694;BME280;21812;55.536;37.664;2023-03-25T02:13:45;98476.00;;;14.04;47.25
35694;BME280;21812;55.536;37.664;2023-03-25T02:16:29;98470.31;;;14.34;46.78
35694;BME280;21812;55.536;37.664;2023-03-25T02:25:34;98464.97;;;13.72;43.08
35694;BME280;21812;55.536;37.664;2023-03-25T02:36:23;98443.03;;;14.42;45.36
35694;BME280;21812;55.536;37.664;2023-03-25T02:39:11;98439.56;;;14.59;44.60
35694;BME280;21812;55.536;37.664;2023-03-25T02:41:48;98440.81;;;14.56;44.72
35694;BME280;21812;55.536;37.664;2023-03-25T02:46:55;98380.81;;;14.28;44.18
35694;BME280;21812;55.536;37.664;2023-03-25T02:49:35;98388.13;;;14.33;43.89
35694;BME280;21812;55.536;37.664;2023-03-25T02:52:07;98422.00;;;14.73;45.23
35694;BME280;21812;55.536;37.664;2023-03-25T02:54:36;98410.31;;;14.84;44.23
35694;BME280;21812;55.536;37.664;2023-03-25T02:57:05;98371.97;;;14.50;44.44
35694;BME280;21812;55.536;37.664;2023-03-25T02:59:33;98381.69;;;14.34;44.63
35694;BME280;21812;55.536;37.664;2023-03-25T03:02:06;98386.97;;;14.29;44.63
35694;BME280;21812;55.536;37.664;2023-03-25T03:04:51;98407.88;;;14.61;45.62
35694;BME280;21812;55.536;37.664;2023-03-25T03:07:27;98361.41;;;14.43;45.36
35694;BME280;21812;55.536;37.664;2023-03-25T03:20:43;98343.59;;;14.76;45.02
35694;BME280;21812;55.536;37.664;2023-03-25T03:23:27;98359.50;;;14.83;43.98
35694;BME280;21812;55.536;37.664;2023-03-25T03:29:45;98353.22;;;14.72;44.99
35694;BME280;21812;55.536;37.664;2023-03-25T03:32:17;98347.56;;;14.52;45.22
35694;BME280;21812;55.536;37.664;2023-03-25T03:35:03;98284.69;;;13.69;46.05
35694;BME280;21812;55.536;37.664;2023-03-25T03:37:35;98320.81;;;13.84;46.74
35694;BME280;21812;55.536;37.664;2023-03-25T03:40:08;98326.38;;;13.77;47.34
35694;BME280;21812;55.536;37.664;2023-03-25T03:42:47;98335.88;;;14.02;47.56
35694;BME280;21812;55.536;37.664;2023-03-25T03:45:33;98337.41;;;14.37;47.21
35694;BME280;21812;55.536;37.664;2023-03-25T03:48:06;98333.16;;;14.19;47.13
35694;BME280;21812;55.536;37.664;2023-03-25T03:50:39;98325.66;;;14.21;47.60
35694;BME280;21812;55.536;37.664;2023-03-25T03:53:14;98317.81;;;14.36;47.27
35694;BME280;21812;55.536;37.664;2023-03-25T03:55:45;98273.63;;;14.05;46.97
35694;BME280;21812;55.536;37.664;2023-03-25T03:58:18;98266.47;;;14.11;47.28
35694;BME280;21812;55.536;37.664;2023-03-25T04:04:04;98294.50;;;14.20;47.21
35694;BME280;21812;55.536;37.664;2023-03-25T04:07:27;98290.31;;;14.29;47.76
35694;BME280;21812;55.536;37.664;2023-03-25T04:12:13;98304.16;;;14.82;46.87
35694;BME280;21812;55.536;37.664;2023-03-25T04:14:41;98289.22;;;14.96;46.79
35694;BME280;21812;55.536;37.664;2023-03-25T04:17:07;98287.13;;;14.98;46.46
35694;BME280;21812;55.536;37.664;2023-03-25T04:19:32;98286.00;;;15.21;46.21
35694;BME280;21812;55.536;37.664;2023-03-25T04:22:00;98243.78;;;15.22;46.01
35694;BME280;21812;55.536;37.664;2023-03-25T04:24:27;98273.91;;;15.56;45.24
35694;BME280;21812;55.536;37.664;2023-03-25T04:26:59;98277.41;;;15.57;45.56
35694;BME280;21812;55.536;37.664;2023-03-25T04:29:29;98265.34;;;15.59;45.38
35694;BME280;21812;55.536;37.664;2023-03-25T04:31:55;98260.09;;;15.42;45.16
35694;BME280;21812;55.536;37.664;2023-03-25T04:34:22;98259.41;;;15.25;46.05
35694;BME280;21812;55.536;37.664;2023-03-25T04:36:48;98245.63;;;15.16;46.32
35694;BME280;21812;55.536;37.664;2023-03-25T04:39:17;98247.53;;;15.21;46.68
35694;BME280;21812;55.536;37.664;2023-03-25T04:41:50;98242.97;;;15.21;46.43
35694;BME280;21812;55.536;37.664;2023-03-25T04:44:20;98242.94;;;15.16;46.14
35694;BME280;21812;55.536;37.664;2023-03-25T04:46:47;98244.41;;;15.02;46.36
35694;BME280;21812;55.536;37.664;2023-03-25T04:49:18;98221.22;;;14.41;47.85
35694;BME280;21812;55.536;37.664;2023-03-25T04:51:46;98238.81;;;14.10;48.50
35694;BME280;21812;55.536;37.664;2023-03-25T04:54:14;98237.59;;;13.79;49.55
35694;BME280;21812;55.536;37.664;2023-03-25T04:56:40;98236.66;;;13.34;50.54
35694;BME280;21812;55.536;37.664;2023-03-25T04:59:06;98229.81;;;13.60;51.42
35694;BME280;21812;55.536;37.664;2023-03-25T05:01:33;98235.19;;;13.60;50.60
35694;BME280;21812;55.536;37.664;2023-03-25T05:04:04;98189.38;;;13.45;51.53
35694;BME280;21812;55.536;37.664;2023-03-25T05:06:34;98226.44;;;13.87;50.83
35694;BME280;21812;55.536;37.664;2023-03-25T05:09:02;98230.16;;;13.47;50.04
35694;BME280;21812;55.536;37.664;2023-03-25T05:11:30;98223.47;;;13.66;51.29
35694;BME280;21812;55.536;37.664;2023-03-25T05:13:56;98231.53;;;13.33;51.50
35694;BME280;21812;55.536;37.664;2023-03-25T05:16:21;98228.59;;;13.17;52.97
35694;BME280;21812;55.536;37.664;2023-03-25T05:18:47;98226.25;;;13.38;53.13
35694;BME280;21812;55.536;37.664;2023-03-25T05:21:14;98224.16;;;13.40;53.53
35694;BME280;21812;55.536;37.664;2023-03-25T05:23:40;98220.72;;;13.10;53.78
35694;BME280;21812;55.536;37.664;2023-03-25T05:26:07;98224.84;;;13.01;53.50
35694;BME280;21812;55.536;37.664;2023-03-25T05:28:33;98227.03;;;12.30;54.30
35694;BME280;21812;55.536;37.664;2023-03-25T05:31:00;98230.34;;;11.85;57.64
35694;BME280;21812;55.536;37.664;2023-03-25T05:33:37;98226.06;;;11.60;59.32
35694;BME280;21812;55.536;37.664;2023-03-25T05:36:13;98230.56;;;11.01;58.49
35694;BME280;21812;55.536;37.664;2023-03-25T05:38:43;98244.75;;;10.71;60.40
35694;BME280;21812;55.536;37.664;2023-03-25T05:41:13;98247.69;;;11.23;61.25
35694;BME280;21812;55.536;37.664;2023-03-25T05:43:42;98230.91;;;11.04;63.67
35694;BME280;21812;55.536;37.664;2023-03-25T05:46:17;98229.31;;;11.74;61.51
35694;BME280;21812;55.536;37.664;2023-03-25T05:48:44;98228.84;;;11.89;60.31
35694;BME280;21812;55.536;37.664;2023-03-25T05:51:17;98215.72;;;12.68;69.61
35694;BME280;21812;55.536;37.664;2023-03-25T05:53:47;98205.31;;;13.35;72.01
35694;BME280;21812;55.536;37.664;2023-03-25T05:56:15;98177.81;;;13.61;64.93
35694;BME280;21812;55.536;37.664;2023-03-25T05:58:44;98178.78;;;13.55;66.63
35694;BME280;21812;55.536;37.664;2023-03-25T06:01:11;98204.31;;;13.58;66.08
35694;BME280;21812;55.536;37.664;2023-03-25T06:03:39;98195.00;;;14.04;73.03
35694;BME280;21812;55.536;37.664;2023-03-25T06:06:06;98179.00;;;13.32;64.26
35694;BME280;21812;55.536;37.664;2023-03-25T06:08:40;98212.59;;;13.22;66.17
35694;BME280;21812;55.536;37.664;2023-03-25T06:11:07;98215.22;;;12.71;59.18
35694;BME280;21812;55.536;37.664;2023-03-25T06:13:33;98215.19;;;12.83;60.98
35694;BME280;21812;55.536;37.664;2023-03-25T06:16:04;98154.94;;;12.69;67.90
35694;BME280;21812;55.536;37.664;2023-03-25T06:18:34;98205.13;;;13.24;68.59
35694;BME280;21812;55.536;37.664;2023-03-25T06:20:59;98191.31;;;13.33;62.93
35694;BME280;21812;55.536;37.664;2023-03-25T06:23:25;98194.41;;;13.41;66.36
35694;BME280;21812;55.536;37.664;2023-03-25T06:25:52;98199.41;;;13.72;63.98
35694;BME280;21812;55.536;37.664;2023-03-25T06:28:18;98190.81;;;13.53;58.36
35694;BME280;21812;55.536;37.664;2023-03-25T06:30:45;98186.69;;;13.11;59.68
35694;BME280;21812;55.536;37.664;2023-03-25T06:33:11;98178.97;;;12.98;67.84
35694;BME280;21812;55.536;37.664;2023-03-25T06:35:42;98178.84;;;12.59;62.36
35694;BME280;21812;55.536;37.664;2023-03-25T06:38:10;98181.16;;;12.38;63.73
35694;BME280;21812;55.536;37.664;2023-03-25T06:40:53;98182.19;;;12.08;61.02
35694;BME280;21812;55.536;37.664;2023-03-25T06:43:19;98181.72;;;11.88;65.49
35694;BME280;21812;55.536;37.664;2023-03-25T06:45:50;98182.47;;;11.71;63.58
35694;BME280;21812;55.536;37.664;2023-03-25T06:48:41;98177.13;;;11.71;64.12
35694;BME280;21812;55.536;37.664;2023-03-25T06:51:07;98142.03;;;11.56;62.94
35694;BME280;21812;55.536;37.664;2023-03-25T06:53:32;98174.47;;;11.48;62.77
35694;BME280;21812;55.536;37.664;2023-03-25T06:55:58;98158.09;;;11.32;63.57
35694;BME280;21812;55.536;37.664;2023-03-25T06:58:24;98155.28;;;11.04;65.73
35694;BME280;21812;55.536;37.664;2023-03-25T07:00:53;98167.13;;;11.08;70.41
35694;BME280;21812;55.536;37.664;2023-03-25T07:03:19;98182.91;;;10.74;66.04
35694;BME280;21812;55.536;37.664;2023-03-25T07:05:46;98131.72;;;10.16;67.42
35694;BME280;21812;55.536;37.664;2023-03-25T07:08:12;98168.53;;;10.45;67.35
35694;BME280;21812;55.536;37.664;2023-03-25T07:10:38;98180.91;;;10.39;67.13
35694;BME280;21812;55.536;37.664;2023-03-25T07:13:03;98180.44;;;10.30;67.45
35694;BME280;21812;55.536;37.664;2023-03-25T07:15:29;98175.59;;;10.21;67.91
35694;BME280;21812;55.536;37.664;2023-03-25T07:17:54;98182.66;;;10.15;68.19
35694;BME280;21812;55.536;37.664;2023-03-25T07:20:20;98181.81;;;10.14;68.64
35694;BME280;21812;55.536;37.664;2023-03-25T07:22:46;98172.28;;;10.07;69.00
35694;BME280;21812;55.536;37.664;2023-03-25T07:25:11;98175.25;;;9.98;69.42
35694;BME280;21812;55.536;37.664;2023-03-25T07:27:37;98172.53;;;9.87;69.82
35694;BME280;21812;55.536;37.664;2023-03-25T07:30:08;98183.63;;;9.84;70.28
35694;BME280;21812;55.536;37.664;2023-03-25T07:32:33;98169.13;;;9.79;70.76
35694;BME280;21812;55.536;37.664;2023-03-25T07:34:59;98171.03;;;9.72;71.05
35694;BME280;21812;55.536;37.664;2023-03-25T07:37:25;98173.06;;;9.77;71.13
35694;BME280;21812;55.536;37.664;2023-03-25T07:39:50;98176.53;;;9.77;71.25
35694;BME280;21812;55.536;37.664;2023-03-25T07:42:16;98164.81;;;9.78;71.48
35694;BME280;21812;55.536;37.664;2023-03-25T07:45:08;98165.44;;;9.81;71.70
35694;BME280;21812;55.536;37.664;2023-03-25T07:47:36;98171.88;;;9.73;71.86
35694;BME280;21812;55.536;37.664;2023-03-25T07:50:02;98175.03;;;9.82;71.88
35694;BME280;21812;55.536;37.664;2023-03-25T07:52:29;98165.56;;;9.86;71.76
35694;BME280;21812;55.536;37.664;2023-03-25T07:54:54;98162.59;;;9.75;72.05
35694;BME280;21812;55.536;37.664;2023-03-25T07:57:20;98168.97;;;9.74;72.60
35694;BME280;21812;55.536;37.664;2023-03-25T07:59:46;98183.78;;;9.70;72.86
35694;BME280;21812;55.536;37.664;2023-03-25T08:02:12;98177.41;;;9.71;72.90
35694;BME280;21812;55.536;37.664;2023-03-25T08:04:38;98174.75;;;9.71;72.74
35694;BME280;21812;55.536;37.664;2023-03-25T08:07:04;98168.16;;;9.74;73.15
35694;BME280;21812;55.536;37.664;2023-03-25T08:09:29;98173.44;;;9.81;72.98
35694;BME280;21812;55.536;37.664;2023-03-25T08:11:55;98189.63;;;9.79;73.04
35694;BME280;21812;55.536;37.664;2023-03-25T08:14:21;98188.59;;;9.80;73.26
35694;BME280;21812;55.536;37.664;2023-03-25T08:16:47;98191.94;;;9.75;73.46
35694;BME280;21812;55.536;37.664;2023-03-25T08:19:12;98189.44;;;9.81;73.55
35694;BME280;21812;55.536;37.664;2023-03-25T08:21:40;98196.00;;;9.78;73.63
35694;BME280;21812;55.536;37.664;2023-03-25T08:24:06;98183.72;;;9.77;73.91
35694;BME280;21812;55.536;37.664;2023-03-25T08:26:34;98192.38;;;9.72;74.24
35694;BME280;21812;55.536;37.664;2023-03-25T08:29:00;98193.25;;;9.66;74.72
35694;BME280;21812;55.536;37.664;2023-03-25T08:31:28;98193.09;;;9.61;75.21
35694;BME280;21812;55.536;37.664;2023-03-25T08:34:03;98203.53;;;9.63;75.58
35694;BME280;21812;55.536;37.664;2023-03-25T08:36:29;98204.66;;;9.55;75.97
35694;BME280;21812;55.536;37.664;2023-03-25T08:38:54;98209.38;;;9.53;76.26
35694;BME280;21812;55.536;37.664;2023-03-25T08:41:20;98213.06;;;9.52;76.79
35694;BME280;21812;55.536;37.664;2023-03-25T08:43:46;98205.44;;;9.55;77.06
35694;BME280;21812;55.536;37.664;2023-03-25T08:46:12;98195.47;;;9.51;77.03
35694;BME280;21812;55.536;37.664;2023-03-25T08:48:38;98217.53;;;9.58;77.31
35694;BME280;21812;55.536;37.664;2023-03-25T08:51:04;98219.16;;;9.59;77.68
35694;BME280;21812;55.536;37.664;2023-03-25T08:53:30;98212.22;;;9.58;77.69
35694;BME280;21812;55.536;37.664;2023-03-25T08:55:58;98204.25;;;9.51;77.94
35694;BME280;21812;55.536;37.664;2023-03-25T08:58:25;98196.19;;;9.39;77.94
35694;BME280;21812;55.536;37.664;2023-03-25T09:00:52;98209.22;;;9.48;78.39
35694;BME280;21812;55.536;37.664;2023-03-25T09:03:21;98214.25;;;9.37;78.89
35694;BME280;21812;55.536;37.664;2023-03-25T09:05:47;98216.84;;;9.44;79.04
35694;BME280;21812;55.536;37.664;2023-03-25T09:08:13;98214.13;;;9.51;79.26
35694;BME280;21812;55.536;37.664;2023-03-25T09:10:39;98223.69;;;9.58;79.70
35694;BME280;21812;55.536;37.664;2023-03-25T09:13:05;98199.53;;;9.53;79.48
35694;BME280;21812;55.536;37.664;2023-03-25T09:15:31;98211.47;;;9.69;79.16
35694;BME280;21812;55.536;37.664;2023-03-25T09:17:56;98183.47;;;9.60;79.16
35694;BME280;21812;55.536;37.664;2023-03-25T09:20:23;98196.09;;;9.71;79.21
35694;BME280;21812;55.536;37.664;2023-03-25T09:22:49;98197.63;;;9.79;79.53
35694;BME280;21812;55.536;37.664;2023-03-25T09:25:15;98205.16;;;9.82;79.35
35694;BME280;21812;55.536;37.664;2023-03-25T09:27:40;98203.34;;;9.83;79.38
35694;BME280;21812;55.536;37.664;2023-03-25T09:30:07;98201.06;;;9.86;79.08
35694;BME280;21812;55.536;37.664;2023-03-25T09:32:33;98206.88;;;9.95;79.15
35694;BME280;21812;55.536;37.664;2023-03-25T09:34:59;98214.72;;;9.90;79.21
35694;BME280;21812;55.536;37.664;2023-03-25T09:37:25;98213.53;;;9.86;79.60
35694;BME280;21812;55.536;37.664;2023-03-25T09:39:51;98213.16;;;9.82;80.08
35694;BME280;21812;55.536;37.664;2023-03-25T09:45:39;98219.47;;;10.06;80.20
35694;BME280;21812;55.536;37.664;2023-03-25T09:48:30;98219.03;;;10.09;79.84
35694;BME280;21812;55.536;37.664;2023-03-25T09:51:00;98208.97;;;9.93;79.56
35694;BME280;21812;55.536;37.664;2023-03-25T09:53:36;98175.94;;;9.75;79.54
35694;BME280;21812;55.536;37.664;2023-03-25T09:56:06;98217.16;;;9.91;79.73
35694;BME280;21812;55.536;37.664;2023-03-25T09:58:42;98233.25;;;10.03;79.76
35694;BME280;21812;55.536;37.664;2023-03-25T10:06:25;98229.84;;;9.96;80.59
35694;BME280;21812;55.536;37.664;2023-03-25T10:11:43;98233.69;;;10.18;80.61
35694;BME280;21812;55.536;37.664;2023-03-25T10:17:28;98245.69;;;10.46;79.40
35694;BME280;21812;55.536;37.664;2023-03-25T10:20:15;98242.00;;;10.47;79.15
35694;BME280;21812;55.536;37.664;2023-03-25T10:25:17;98243.28;;;10.56;78.75
35694;BME280;21812;55.536;37.664;2023-03-25T10:27:48;98258.53;;;10.68;78.14
35694;BME280;21812;55.536;37.664;2023-03-25T10:30:42;98241.16;;;10.77;77.97
35694;BME280;21812;55.536;37.664;2023-03-25T10:33:36;98244.53;;;10.72;78.03
35694;BME280;21812;55.536;37.664;2023-03-25T10:36:04;98248.00;;;10.73;78.15
35694;BME280;21812;55.536;37.664;2023-03-25T10:38:34;98204.03;;;10.27;78.03
35694;BME280;21812;55.536;37.664;2023-03-25T10:41:13;98253.84;;;10.51;78.46
35694;BME280;21812;55.536;37.664;2023-03-25T10:43:43;98256.50;;;10.51;78.48
35694;BME280;21812;55.536;37.664;2023-03-25T10:48:52;98248.78;;;10.62;78.26
35694;BME280;21812;55.536;37.664;2023-03-25T10:51:32;98246.22;;;10.55;78.44
35694;BME280;21812;55.536;37.664;2023-03-25T10:54:00;98222.72;;;10.45;78.41
35694;BME280;21812;55.536;37.664;2023-03-25T10:56:30;98255.03;;;10.55;78.23
35694;BME280;21812;55.536;37.664;2023-03-25T10:58:59;98243.16;;;10.51;78.43
35694;BME280;21812;55.536;37.664;2023-03-25T11:01:34;98228.19;;;10.50;78.67
35694;BME280;21812;55.536;37.664;2023-03-25T11:04:03;98221.81;;;10.51;78.51
35694;BME280;21812;55.536;37.664;2023-03-25T11:06:32;98193.56;;;10.32;78.29
35694;BME280;21812;55.536;37.664;2023-03-25T11:11:34;98233.03;;;10.72;78.09
35694;BME280;21812;55.536;37.664;2023-03-25T11:14:01;98229.75;;;10.70;77.93
35694;BME280;21812;55.536;37.664;2023-03-25T11:16:42;98253.00;;;10.81;77.95
35694;BME280;21812;55.536;37.664;2023-03-25T11:19:17;98255.94;;;10.80;77.83
35694;BME280;21812;55.536;37.664;2023-03-25T11:21:46;98210.78;;;10.48;77.53
35694;BME280;21812;55.536;37.664;2023-03-25T11:24:17;98207.97;;;10.43;77.60
35694;BME280;21812;55.536;37.664;2023-03-25T11:26:45;98214.47;;;10.47;78.07
35694;BME280;21812;55.536;37.664;2023-03-25T11:29:16;98198.47;;;10.47;77.89
35694;BME280;21812;55.536;37.664;2023-03-25T11:31:42;98236.84;;;10.64;77.92
35694;BME280;21812;55.536;37.664;2023-03-25T11:39:41;98230.66;;;10.64;78.25
35694;BME280;21812;55.536;37.664;2023-03-25T11:44:38;98228.78;;;10.52;78.28
35694;BME280;21812;55.536;37.664;2023-03-25T11:47:08;98229.06;;;10.63;78.39
35694;BME280;21812;55.536;37.664;2023-03-25T11:49:37;98233.81;;;10.61;78.16
35694;BME280;21812;55.536;37.664;2023-03-25T11:52:11;98197.25;;;10.31;78.33
35694;BME280;21812;55.536;37.664;2023-03-25T11:54:39;98233.41;;;10.45;78.61
35694;BME280;21812;55.536;37.664;2023-03-25T11:57:11;98232.59;;;10.56;78.71
35694;BME280;21812;55.536;37.664;2023-03-25T11:59:43;98187.09;;;10.40;78.48
35694;BME280;21812;55.536;37.664;2023-03-25T12:02:28;98233.38;;;10.75;78.56
35694;BME280;21812;55.536;37.664;2023-03-25T12:05:18;98236.88;;;10.76;78.53
35694;BME280;21812;55.536;37.664;2023-03-25T12:07:47;98220.22;;;10.62;78.28
35694;BME280;21812;55.536;37.664;2023-03-25T12:10:17;98241.63;;;10.74;78.41
35694;BME280;21812;55.536;37.664;2023-03-25T12:16:09;98247.97;;;10.61;78.53
35694;BME280;21812;55.536;37.664;2023-03-25T12:43:03;98253.31;;;10.61;79.78
35694;BME280;21812;55.536;37.664;2023-03-25T12:45:42;98257.91;;;10.54;80.18
35694;BME280;21812;55.536;37.664;2023-03-25T12:56:11;98251.41;;;10.50;80.32
35694;BME280;21812;55.536;37.664;2023-03-25T13:06:59;98200.91;;;10.30;80.42
35694;BME280;21812;55.536;37.664;2023-03-25T13:09:35;98228.66;;;10.47;80.66
35694;BME280;21812;55.536;37.664;2023-03-25T13:12:12;98229.81;;;10.51;81.28
35694;BME280;21812;55.536;37.664;2023-03-25T13:15:02;98223.03;;;10.37;81.71
35694;BME280;21812;55.536;37.664;2023-03-25T13:20:15;98233.44;;;10.57;81.57
35694;BME280;21812;55.536;37.664;2023-03-25T13:22:48;98194.84;;;10.41;81.55
35694;BME280;21812;55.536;37.664;2023-03-25T13:25:20;98195.13;;;10.51;81.19
35694;BME280;21812;55.536;37.664;2023-03-25T13:27:49;98228.75;;;10.83;80.64
35694;BME280;21812;55.536;37.664;2023-03-25T13:30:26;98235.19;;;10.93;80.30
35694;BME280;21812;55.536;37.664;2023-03-25T13:32:56;98233.28;;;10.82;80.04
35694;BME280;21812;55.536;37.664;2023-03-25T13:35:36;98248.41;;;10.88;80.62
35694;BME280;21812;55.536;37.664;2023-03-25T13:38:10;98243.59;;;10.79;80.60
35694;BME280;21812;55.536;37.664;2023-03-25T13:40:50;98248.72;;;10.80;80.85
35694;BME280;21812;55.536;37.664;2023-03-25T13:46:20;98162.94;;;10.34;80.40
35694;BME280;21812;55.536;37.664;2023-03-25T13:48:57;98245.94;;;10.87;80.11
35694;BME280;21812;55.536;37.664;2023-03-25T13:51:26;98242.00;;;10.78;79.65
35694;BME280;21812;55.536;37.664;2023-03-25T13:54:05;98243.59;;;10.79;80.44
35694;BME280;21812;55.536;37.664;2023-03-25T13:59:36;98253.13;;;10.74;79.97
35694;BME280;21812;55.536;37.664;2023-03-25T14:02:50;98250.84;;;10.90;80.21
35694;BME280;21812;55.536;37.664;2023-03-25T14:10:45;98190.50;;;10.59;79.68
35694;BME280;21812;55.536;37.664;2023-03-25T14:13:31;98196.47;;;10.72;79.54
35694;BME280;21812;55.536;37.664;2023-03-25T14:16:06;98204.91;;;10.69;79.07
35694;BME280;21812;55.536;37.664;2023-03-25T14:18:40;98247.47;;;10.94;79.05
35694;BME280;21812;55.536;37.664;2023-03-25T14:24:13;98215.78;;;10.56;79.67
35694;BME280;21812;55.536;37.664;2023-03-25T14:26:52;98224.88;;;10.67;79.64
35694;BME280;21812;55.536;37.664;2023-03-25T14:29:42;98264.34;;;10.95;79.30
35694;BME280;21812;55.536;37.664;2023-03-25T14:34:42;98264.41;;;10.88;79.03
35694;BME280;21812;55.536;37.664;2023-03-25T14:37:09;98256.19;;;10.90;79.23
35694;BME280;21812;55.536;37.664;2023-03-25T14:39:37;98267.22;;;10.93;78.97
35694;BME280;21812;55.536;37.664;2023-03-25T14:44:44;98223.81;;;10.68;78.59
35694;BME280;21812;55.536;37.664;2023-03-25T14:52:30;98258.06;;;10.89;78.84
35694;BME280;21812;55.536;37.664;2023-03-25T14:54:59;98248.63;;;10.87;78.98
35694;BME280;21812;55.536;37.664;2023-03-25T14:57:28;98221.88;;;10.75;78.75
35694;BME280;21812;55.536;37.664;2023-03-25T15:00:00;98241.81;;;10.91;78.54
35694;BME280;21812;55.536;37.664;2023-03-25T15:02:31;98266.50;;;10.86;78.69
35694;BME280;21812;55.536;37.664;2023-03-25T15:05:01;98262.81;;;10.87;78.69
35694;BME280;21812;55.536;37.664;2023-03-25T15:10:29;98266.94;;;10.83;79.40
35694;BME280;21812;55.536;37.664;2023-03-25T15:21:09;98286.78;;;10.75;79.33
35694;BME280;21812;55.536;37.664;2023-03-25T15:23:38;98289.97;;;10.66;79.46
35694;BME280;21812;55.536;37.664;2023-03-25T15:26:12;98250.28;;;10.39;79.64
35694;BME280;21812;55.536;37.664;2023-03-25T15:34:33;98293.25;;;10.68;80.00
35694;BME280;21812;55.536;37.664;2023-03-25T15:37:42;98295.91;;;10.68;79.92
35694;BME280;21812;55.536;37.664;2023-03-25T15:40:20;98293.56;;;10.60;79.66
35694;BME280;21812;55.536;37.664;2023-03-25T15:56:44;98310.84;;;10.57;79.26
35694;BME280;21812;55.536;37.664;2023-03-25T16:01:47;98301.19;;;10.37;79.77
35694;BME280;21812;55.536;37.664;2023-03-25T16:04:15;98313.31;;;10.40;79.73